Time;durP1;ratioP1;P1;durP2;ratioP2;P2;SDS_P1;SDS_P2;PMS_P1;PMS_P2;Temp;Humidity;BMP_temperature;BMP_pressure;BME280_temperature;BME280_humidity;BME280_pressure;Samples;Min_cycle;Max_cycle;Signal;HPM_P1;HPM_P2
2022/01/22 00:01:51;;;;;;;8.67;1.80;;;;;;;6.74;100.00;102997.91;5041926;28;20520;-75
2022/01/22 00:04:16;;;;;;;8.80;1.47;;;;;;;6.72;100.00;102989.16;5041146;28;20179;-74
2022/01/22 00:06:42;;;;;;;6.40;1.53;;;;;;;6.85;100.00;103001.53;5040981;28;20203;-74
2022/01/22 00:09:08;;;;;;;7.03;2.00;;;;;;;6.63;100.00;102962.38;5040996;28;20194;-75
2022/01/22 00:11:39;;;;;;;7.17;1.83;;;;;;;6.85;100.00;103002.38;5041599;28;20637;-75
2022/01/22 00:14:24;;;;;;;8.03;1.70;;;;;;;6.81;100.00;103000.94;5040891;28;20175;-74
2022/01/22 00:17:00;;;;;;;8.27;1.80;;;;;;;6.70;100.00;102988.44;5041192;28;20418;-74
2022/01/22 00:19:26;;;;;;;8.90;1.67;;;;;;;6.73;100.00;102998.84;5042409;28;20441;-74
2022/01/22 00:21:52;;;;;;;8.17;1.67;;;;;;;6.81;100.00;103002.75;5040976;28;20458;-75
2022/01/22 00:24:18;;;;;;;10.10;1.90;;;;;;;6.67;100.00;102967.34;5040009;28;20426;-75
2022/01/22 00:26:45;;;;;;;9.20;1.77;;;;;;;6.54;100.00;102970.13;5039979;28;20427;-76
2022/01/22 00:29:11;;;;;;;6.83;1.87;;;;;;;6.86;100.00;102993.44;5040964;28;20815;-74
2022/01/22 00:31:39;;;;;;;8.00;2.10;;;;;;;6.57;100.00;102950.38;5040485;28;20450;-75
2022/01/22 00:34:06;;;;;;;10.80;2.10;;;;;;;6.36;100.00;102950.22;5040876;28;20418;-75
2022/01/22 00:36:33;;;;;;;7.17;1.93;;;;;;;6.88;100.00;102993.28;5024082;28;20786;-77
2022/01/22 00:38:58;;;;;;;6.33;2.03;;;;;;;6.87;100.00;103011.13;5038853;28;20410;-73
2022/01/22 00:41:24;;;;;;;9.10;2.13;;;;;;;6.83;100.00;103007.00;5040405;28;20837;-74
2022/01/22 00:43:50;;;;;;;10.93;2.60;;;;;;;6.74;100.00;103007.69;5040435;28;20214;-74
2022/01/22 00:46:15;;;;;;;11.00;2.60;;;;;;;6.91;100.00;103006.38;5041517;28;20497;-75
2022/01/22 00:48:41;;;;;;;9.03;1.87;;;;;;;6.81;100.00;102984.94;5040348;28;20450;-74
2022/01/22 00:51:07;;;;;;;8.50;2.17;;;;;;;6.68;100.00;102962.84;5041486;28;20275;-75
2022/01/22 00:53:32;;;;;;;7.53;2.30;;;;;;;6.51;100.00;102953.53;5040057;28;20180;-76
2022/01/22 00:55:58;;;;;;;13.93;2.10;;;;;;;6.96;100.00;103014.88;5041686;28;20664;-74
2022/01/22 00:58:24;;;;;;;11.13;2.47;;;;;;;6.98;100.00;103028.94;5040195;28;20183;-74
2022/01/22 01:00:50;;;;;;;10.07;2.40;;;;;;;6.99;100.00;103018.13;5040621;28;20465;-75
2022/01/22 01:03:15;;;;;;;10.47;2.10;;;;;;;6.85;100.00;103013.03;5041157;28;20609;-75
2022/01/22 01:05:41;;;;;;;9.43;2.67;;;;;;;6.85;100.00;103013.03;5043184;28;20422;-75
2022/01/22 01:08:06;;;;;;;7.13;1.70;;;;;;;6.86;100.00;103004.09;5043259;28;20211;-74
2022/01/22 01:10:32;;;;;;;7.30;1.30;;;;;;;6.89;100.00;103014.53;5041986;28;20216;-75
2022/01/22 01:12:58;;;;;;;4.70;1.30;;;;;;;6.88;100.00;103017.28;5040083;28;20184;-75
2022/01/22 01:32:08;;;;;;;8.83;1.83;;;;;;;6.89;100.00;103003.84;5038983;28;20493;-75
2022/01/22 01:32:18;;;;;;;7.57;1.30;;;;;;;6.86;100.00;103014.75;5037956;28;20417;-76
2022/01/22 01:34:46;;;;;;;5.40;1.40;;;;;;;6.84;100.00;103014.03;5038916;28;20505;-73
2022/01/22 01:37:14;;;;;;;7.73;1.43;;;;;;;6.94;100.00;103015.00;5021655;28;20865;-73
2022/01/22 01:39:41;;;;;;;9.23;1.77;;;;;;;6.65;100.00;102973.75;5038293;28;20427;-73
2022/01/22 01:42:12;;;;;;;6.67;2.00;;;;;;;6.86;100.00;103022.78;5039146;28;20465;-74
2022/01/22 01:44:39;;;;;;;5.83;1.23;;;;;;;6.82;100.00;103012.44;5040810;28;20768;-75
2022/01/22 01:47:06;;;;;;;6.17;1.30;;;;;;;6.88;100.00;103027.97;5041461;28;20923;-73
2022/01/22 01:49:33;;;;;;;7.20;1.17;;;;;;;6.82;100.00;103013.28;5037913;28;20481;-73
2022/01/22 01:52:01;;;;;;;6.33;1.30;;;;;;;6.88;100.00;103027.97;5037176;28;20430;-73
2022/01/22 01:59:38;;;;;;;5.40;2.00;;;;;;;6.91;100.00;103036.56;5038176;28;20183;-74
2022/01/22 02:02:04;;;;;;;6.23;1.33;;;;;;;6.87;100.00;103035.13;5021831;28;20552;-75
2022/01/22 02:04:30;;;;;;;5.33;1.27;;;;;;;6.51;100.00;102997.03;5039448;28;20423;-74
2022/01/22 02:06:56;;;;;;;7.80;1.53;;;;;;;6.67;100.00;103020.69;5039821;28;21049;-73
2022/01/22 02:09:22;;;;;;;10.67;1.60;;;;;;;6.65;100.00;103027.94;5039883;28;20204;-75
2022/01/22 02:11:57;;;;;;;7.63;1.03;;;;;;;6.82;100.00;103050.63;5038264;28;20824;-73
2022/01/22 02:25:28;;;;;;;6.97;1.60;;;;;;;6.79;100.00;103069.56;5038764;28;20506;-75
2022/01/22 02:27:54;;;;;;;6.03;1.20;;;;;;;6.74;100.00;103071.72;5038737;28;20436;-74
2022/01/22 02:30:24;;;;;;;4.83;1.10;;;;;;;6.82;100.00;103077.31;5038724;28;20450;-75
2022/01/22 02:35:42;;;;;;;6.70;1.40;;;;;;;6.83;100.00;103071.03;5039365;28;20433;-75
2022/01/22 02:38:15;;;;;;;10.23;1.30;;;;;;;6.75;100.00;103068.09;5039712;28;20403;-72
2022/01/22 02:40:47;;;;;;;4.90;1.63;;;;;;;6.70;100.00;103055.09;5038167;28;20462;-73
2022/01/22 02:43:13;;;;;;;6.40;1.10;;;;;;;6.91;100.00;103063.25;5040141;28;20563;-74
2022/01/22 02:45:44;;;;;;;3.20;0.90;;;;;;;6.77;100.00;103069.69;5037850;28;20434;-75
2022/01/22 02:48:10;;;;;;;7.90;1.47;;;;;;;6.46;100.00;103062.34;5039039;28;20499;-74
2022/01/22 02:50:36;;;;;;;4.23;1.30;;;;;;;6.57;100.00;103023.22;5037410;28;20457;-74
2022/01/22 02:53:07;;;;;;;5.20;1.40;;;;;;;6.96;100.00;103078.91;5037639;28;20431;-75
2022/01/22 02:55:34;;;;;;;3.67;1.27;;;;;;;6.68;100.00;103057.06;5039042;28;20179;-74
2022/01/22 02:57:59;;;;;;;6.70;1.53;;;;;;;6.45;100.00;103029.50;5038919;28;20506;-72
2022/01/22 03:00:26;;;;;;;7.90;1.10;;;;;;;6.45;100.00;103032.19;5039437;28;20545;-73
2022/01/22 03:02:51;;;;;;;3.70;1.00;;;;;;;6.82;100.00;103095.97;5037822;28;20303;-73
2022/01/22 03:05:18;;;;;;;5.80;1.07;;;;;;;6.86;100.00;103089.47;5040153;28;20886;-74
2022/01/22 03:07:48;;;;;;;7.10;1.03;;;;;;;6.62;100.00;103067.34;5037883;28;20434;-73
2022/01/22 03:10:16;;;;;;;5.83;1.13;;;;;;;6.78;100.00;103082.03;5036923;28;20561;-75
2022/01/22 03:18:00;;;;;;;3.77;1.20;;;;;;;6.75;100.00;103084.94;5039010;28;20648;-74
2022/01/22 03:28:02;;;;;;;5.90;1.33;;;;;;;6.65;100.00;103073.28;5040083;28;20696;-75
2022/01/22 03:30:31;;;;;;;3.50;1.17;;;;;;;6.72;100.00;103058.50;5038859;28;20481;-75
2022/01/22 03:32:57;;;;;;;4.67;1.00;;;;;;;6.77;100.00;103075.03;5051110;22;20227;-71
2022/01/22 03:35:26;;;;;;;6.40;1.50;;;;;;;6.37;100.00;103028.41;5043528;28;21064;-70
2022/01/22 03:37:55;;;;;;;5.20;1.20;;;;;;;6.57;100.00;103052.56;5042138;28;20479;-71
2022/01/22 03:40:23;;;;;;;6.13;1.53;;;;;;;6.50;100.00;103056.66;5046412;28;20489;-70
2022/01/22 03:42:51;;;;;;;3.73;0.80;;;;;;;6.73;100.00;103070.03;5025360;28;20461;-71
2022/01/22 03:45:17;;;;;;;2.30;1.00;;;;;;;6.68;100.00;103081.06;5038973;28;20524;-70
2022/01/22 03:47:42;;;;;;;4.03;1.10;;;;;;;6.62;100.00;103081.50;5040324;28;20463;-71
2022/01/22 03:50:10;;;;;;;8.17;1.10;;;;;;;6.10;100.00;103003.75;5038982;28;20963;-71
2022/01/22 03:52:36;;;;;;;5.33;1.53;;;;;;;6.13;100.00;102985.81;5037281;28;20204;-71
2022/01/22 03:55:03;;;;;;;2.20;0.80;;;;;;;6.67;100.00;103067.84;5038999;28;20477;-71
2022/01/22 03:57:28;;;;;;;2.13;1.20;;;;;;;6.68;100.00;103085.53;5038126;28;20586;-71
2022/01/22 03:59:55;;;;;;;3.20;0.80;;;;;;;6.51;100.00;103055.69;5040271;28;20480;-71
2022/01/22 04:05:02;;;;;;;1.70;0.60;;;;;;;6.68;100.00;103088.19;5042354;28;20409;-70
2022/01/22 04:10:10;;;;;;;1.90;0.80;;;;;;;6.96;100.00;103090.44;5043555;28;20851;-71
2022/01/22 04:15:05;;;;;;;2.30;0.87;;;;;;;6.98;100.00;103093.00;5042848;28;20423;-71
2022/01/22 04:25:07;;;;;;;3.50;0.83;;;;;;;6.29;100.00;103042.31;5041756;28;20508;-71
2022/01/22 04:27:32;;;;;;;3.90;0.80;;;;;;;6.59;100.00;103096.91;5041155;28;20211;-70
2022/01/22 04:29:59;;;;;;;5.93;1.43;;;;;;;6.19;100.00;103038.63;5040793;28;20811;-71
2022/01/22 04:32:26;;;;;;;5.17;1.17;;;;;;;6.56;100.00;103088.16;5040660;28;20685;-71
2022/01/22 04:34:52;;;;;;;8.17;1.73;;;;;;;6.54;100.00;103087.47;5040868;28;20488;-71
2022/01/22 04:37:18;;;;;;;3.53;1.10;;;;;;;6.64;100.00;103076.09;5041547;28;20422;-71
2022/01/22 04:39:47;;;;;;;4.57;1.17;;;;;;;6.39;100.00;103045.09;5040176;28;20437;-70
2022/01/22 04:42:15;;;;;;;2.33;0.90;;;;;;;6.61;100.00;103087.00;5041088;28;20644;-71
2022/01/22 04:44:51;;;;;;;8.13;1.30;;;;;;;6.25;100.00;103022.16;5040259;28;20505;-70
2022/01/22 04:47:46;;;;;;;4.67;1.10;;;;;;;6.77;100.00;103091.03;5042604;28;20642;-70
2022/01/22 04:55:34;;;;;;;1.70;1.00;;;;;;;6.76;100.00;103091.13;5040410;28;20508;-71
2022/01/22 04:57:59;;;;;;;5.77;1.20;;;;;;;6.39;100.00;103059.28;5040883;28;20848;-71
2022/01/22 05:00:25;;;;;;;3.00;1.07;;;;;;;6.73;100.00;103091.38;5040904;28;20541;-71
2022/01/22 05:02:50;;;;;;;2.40;1.77;;;;;;;6.68;100.00;103090.88;5041987;28;20204;-70
2022/01/22 05:05:16;;;;;;;6.20;2.40;;;;;;;6.77;100.00;103096.34;5041483;28;20203;-70
2022/01/22 05:07:41;;;;;;;4.97;1.40;;;;;;;6.71;100.00;103082.63;5040768;28;20211;-70
2022/01/22 05:10:08;;;;;;;6.33;1.63;;;;;;;6.71;100.00;103095.97;5041771;28;20762;-70
2022/01/22 05:12:34;;;;;;;6.27;1.30;;;;;;;6.39;100.00;103050.44;5039474;28;20216;-70
2022/01/22 05:14:59;;;;;;;2.37;1.30;;;;;;;6.38;100.00;103038.94;5041271;28;20419;-70
2022/01/22 05:17:25;;;;;;;4.27;1.23;;;;;;;6.70;100.00;103102.28;5039326;28;20184;-70
2022/01/22 05:19:57;;;;;;;5.03;1.13;;;;;;;6.25;100.00;103048.81;5041013;28;20233;-70
2022/01/22 05:24:58;;;;;;;3.17;1.10;;;;;;;6.52;100.00;103064.53;5042376;28;20451;-70
2022/01/22 05:27:40;;;;;;;9.60;1.00;;;;;;;6.72;100.00;103089.69;5040067;28;20504;-70
2022/01/22 05:32:50;;;;;;;2.00;0.93;;;;;;;6.72;100.00;103105.69;5040087;28;20451;-70
2022/01/22 05:38:00;;;;;;;3.40;0.90;;;;;;;6.28;100.00;103022.81;5041221;28;20793;-70
2022/01/22 05:40:27;;;;;;;1.80;0.83;;;;;;;6.82;100.00;103120.00;5038493;28;20451;-70
2022/01/22 05:42:52;;;;;;;1.43;0.70;;;;;;;6.77;100.00;103103.53;5039023;28;20494;-71
2022/01/22 05:45:18;;;;;;;3.47;0.80;;;;;;;6.78;100.00;103097.19;5039403;28;20427;-70
2022/01/22 05:47:44;;;;;;;12.47;1.47;;;;;;;6.16;100.00;103041.53;5038193;28;20207;-71
2022/01/22 05:50:24;;;;;;;5.73;1.00;;;;;;;6.81;100.00;103125.47;5038719;28;20275;-70
2022/01/22 05:52:56;;;;;;;4.23;0.90;;;;;;;6.70;100.00;103110.28;5038036;28;20430;-71
2022/01/22 06:00:34;;;;;;;4.17;1.37;;;;;;;6.69;100.00;103124.59;5037703;28;20724;-71
2022/01/22 06:03:00;;;;;;;7.03;1.37;;;;;;;6.73;100.00;103121.56;5035475;28;20831;-71
2022/01/22 06:05:25;;;;;;;6.90;1.87;;;;;;;6.56;100.00;103103.31;5039402;28;20183;-71
2022/01/22 06:07:51;;;;;;;4.53;1.37;;;;;;;6.63;100.00;103125.91;5024899;28;20241;-71
2022/01/22 06:10:17;;;;;;;3.17;1.23;;;;;;;6.44;100.00;103070.44;5038524;28;20168;-71
2022/01/22 06:15:16;;;;;;;3.97;1.10;;;;;;;6.30;100.00;103075.97;5038467;28;20432;-72
2022/01/22 06:17:41;;;;;;;3.57;1.20;;;;;;;6.19;100.00;103051.94;5017498;28;20427;-71
2022/01/22 06:20:08;;;;;;;4.37;1.20;;;;;;;6.23;100.00;103080.09;5038222;28;20211;-71
2022/01/22 06:22:33;;;;;;;5.87;1.63;;;;;;;6.63;100.00;103135.72;5037531;28;20349;-71
2022/01/22 06:24:59;;;;;;;7.30;1.33;;;;;;;6.21;100.00;103076.69;5038135;28;20895;-71
2022/01/22 06:27:24;;;;;;;4.20;1.07;;;;;;;6.62;100.00;103147.34;5038681;28;20844;-71
2022/01/22 06:29:50;;;;;;;5.20;1.43;;;;;;;6.70;100.00;103150.28;5037280;28;20262;-71
2022/01/22 06:32:15;;;;;;;6.93;1.60;;;;;;;6.57;100.00;103143.22;5036984;28;20220;-70
2022/01/22 06:34:40;;;;;;;6.73;1.90;;;;;;;6.46;100.00;103156.50;5025100;28;20245;-70
2022/01/22 06:37:06;;;;;;;5.50;1.53;;;;;;;6.40;100.00;103108.13;5037226;28;20190;-72
2022/01/22 06:39:41;;;;;;;3.67;1.37;;;;;;;6.49;100.00;103132.28;5037379;28;20230;-71
2022/01/22 06:42:06;;;;;;;5.57;1.60;;;;;;;6.59;100.00;103163.56;5037904;28;20210;-71
2022/01/22 06:44:34;;;;;;;5.23;1.40;;;;;;;6.48;100.00;103148.38;5037462;28;20419;-71
2022/01/22 06:46:59;;;;;;;6.13;1.80;;;;;;;6.54;100.00;103148.78;5037123;28;20186;-71
2022/01/22 06:49:25;;;;;;;5.57;2.03;;;;;;;6.36;100.00;103134.16;5039046;28;20431;-71
2022/01/22 06:51:51;;;;;;;6.80;3.13;;;;;;;6.38;100.00;103126.06;5038176;28;20191;-71
2022/01/22 06:54:17;;;;;;;7.47;2.60;;;;;;;6.68;100.00;103168.22;5038005;28;20179;-71
2022/01/22 06:56:43;;;;;;;6.57;2.30;;;;;;;6.75;100.00;103177.47;5037727;28;20504;-71
2022/01/22 06:59:10;;;;;;;6.23;1.70;;;;;;;6.66;100.00;103163.00;5036657;28;20426;-71
2022/01/22 07:01:35;;;;;;;8.33;2.20;;;;;;;6.75;100.00;103164.13;5036330;28;20230;-71
2022/01/22 07:04:01;;;;;;;7.23;1.40;;;;;;;6.42;100.00;103107.06;5037647;28;20911;-71
2022/01/22 07:06:27;;;;;;;7.27;2.00;;;;;;;6.81;100.00;103163.66;5040201;28;20262;-71
2022/01/22 07:08:52;;;;;;;3.70;1.23;;;;;;;5.92;100.00;103034.38;5037399;28;20423;-71
2022/01/22 07:11:18;;;;;;;6.83;1.50;;;;;;;6.73;100.00;103163.38;5021014;28;20176;-70
2022/01/22 07:13:45;;;;;;;4.73;1.33;;;;;;;6.63;100.00;103143.72;5035871;28;20194;-71
2022/01/22 07:16:10;;;;;;;3.63;1.13;;;;;;;6.20;100.00;103090.97;5037656;28;20438;-71
2022/01/22 07:18:36;;;;;;;5.67;1.27;;;;;;;6.63;100.00;103168.56;5038126;28;20426;-71
2022/01/22 07:21:18;;;;;;;8.87;1.20;;;;;;;6.71;100.00;103174.19;5035843;28;20676;-70
2022/01/22 07:26:11;;;;;;;7.43;1.10;;;;;;;6.44;100.00;103145.09;5035631;28;20423;-72
2022/01/22 07:28:39;;;;;;;7.43;1.20;;;;;;;6.55;100.00;103149.63;5038256;28;20507;-71
2022/01/22 07:31:05;;;;;;;2.30;0.87;;;;;;;6.77;100.00;103176.38;5034416;28;20673;-71
2022/01/22 07:33:30;;;;;;;2.67;0.70;;;;;;;6.75;100.00;103178.31;5034836;28;20534;-71
2022/01/22 07:35:55;;;;;;;0.80;0.60;;;;;;;6.76;100.00;103164.00;5039378;28;20561;-71
2022/01/22 07:38:21;;;;;;;3.30;1.10;;;;;;;7.00;100.00;103182.63;5041778;28;20229;-71
2022/01/22 07:40:47;;;;;;;3.17;0.90;;;;;;;6.86;100.00;103185.50;5039453;28;20572;-71
2022/01/22 07:43:14;;;;;;;3.27;0.90;;;;;;;6.45;100.00;103143.28;5038797;28;20466;-72
2022/01/22 07:45:40;;;;;;;4.33;1.10;;;;;;;6.43;100.00;103148.75;5040485;28;20179;-72
2022/01/22 07:48:05;;;;;;;4.60;1.53;;;;;;;6.20;100.00;103138.94;5039949;28;20425;-72
2022/01/22 07:50:30;;;;;;;6.80;1.77;;;;;;;6.59;100.00;103201.75;5040487;28;20644;-71
2022/01/22 07:52:57;;;;;;;6.40;1.83;;;;;;;6.56;100.00;103186.81;5039838;28;20208;-71
2022/01/22 07:55:23;;;;;;;5.63;1.50;;;;;;;6.07;100.00;103123.84;5040786;28;20225;-72
2022/01/22 07:57:50;;;;;;;6.10;1.10;;;;;;;6.49;100.00;103212.25;5039838;28;20426;-72
2022/01/22 08:00:16;;;;;;;4.77;1.03;;;;;;;6.60;100.00;103199.97;5040216;28;20180;-72
2022/01/22 08:02:43;;;;;;;2.03;0.70;;;;;;;6.62;100.00;103206.84;5043404;28;20496;-71
2022/01/22 08:05:09;;;;;;;0.60;0.50;;;;;;;6.53;100.00;103199.53;5042624;28;20424;-72
2022/01/22 08:07:34;;;;;;;3.07;0.73;;;;;;;6.31;100.00;103163.00;5042005;28;20505;-71
2022/01/22 08:10:00;;;;;;;1.30;0.60;;;;;;;6.60;100.00;103197.28;5041086;28;20191;-70
2022/01/22 08:12:26;;;;;;;2.80;0.60;;;;;;;6.05;100.00;103123.13;5041702;28;20207;-72
2022/01/22 08:14:52;;;;;;;3.90;0.60;;;;;;;6.71;100.00;103179.53;5043341;28;21089;-71
2022/01/22 08:17:17;;;;;;;2.07;0.60;;;;;;;6.79;100.00;103205.59;5041676;28;20850;-71
2022/01/22 08:19:43;;;;;;;2.50;0.90;;;;;;;6.56;100.00;103215.31;5042140;28;20418;-71
2022/01/22 08:22:09;;;;;;;2.20;0.70;;;;;;;6.10;100.00;103144.97;5040634;28;20692;-71
2022/01/22 08:24:34;;;;;;;2.30;0.80;;;;;;;6.41;100.00;103179.97;5043839;28;20271;-71
2022/01/22 08:29:31;;;;;;;4.93;0.80;;;;;;;6.25;100.00;103166.09;5046016;28;20180;-72
2022/01/22 08:32:08;;;;;;;4.60;0.87;;;;;;;6.49;100.00;103206.09;5043877;28;20530;-71
2022/01/22 08:37:18;;;;;;;1.47;0.80;;;;;;;6.65;100.00;103221.78;5043685;28;20906;-71
2022/01/22 08:39:43;;;;;;;6.90;1.40;;;;;;;6.48;100.00;103189.25;5041565;28;20430;-71
2022/01/22 08:42:08;;;;;;;5.70;0.87;;;;;;;6.69;100.00;103220.59;5041155;28;20291;-71
2022/01/22 08:44:34;;;;;;;4.80;0.90;;;;;;;6.45;100.00;103188.59;5040484;28;20648;-71
2022/01/22 08:47:00;;;;;;;4.67;1.40;;;;;;;6.63;100.00;103235.25;5040631;28;20206;-72
2022/01/22 08:49:26;;;;;;;4.73;1.17;;;;;;;6.00;100.00;103140.41;5025479;28;20187;-71
2022/01/22 08:51:52;;;;;;;4.00;1.40;;;;;;;6.55;100.00;103221.63;5041467;28;20674;-71
2022/01/22 08:54:17;;;;;;;4.80;0.93;;;;;;;6.41;100.00;103208.47;5041370;28;20179;-70
2022/01/22 08:56:43;;;;;;;4.00;0.90;;;;;;;6.62;100.00;103230.84;5024465;28;20509;-70
2022/01/22 08:59:09;;;;;;;4.40;1.17;;;;;;;6.55;100.00;103208.28;5025204;28;20193;-70
2022/01/22 09:01:37;;;;;;;4.37;0.80;;;;;;;6.52;100.00;103236.03;5039635;28;20211;-71
2022/01/22 09:04:03;;;;;;;3.00;0.80;;;;;;;6.55;100.00;103235.81;5041929;28;20911;-71
2022/01/22 09:06:28;;;;;;;4.23;1.00;;;;;;;6.55;100.00;103232.28;5041384;28;20588;-71
2022/01/22 09:08:59;;;;;;;2.37;0.80;;;;;;;6.26;100.00;103207.78;5039777;28;20508;-70
2022/01/22 09:11:25;;;;;;;2.23;0.90;;;;;;;6.21;100.00;103169.94;5040610;28;20187;-70
2022/01/22 09:13:51;;;;;;;5.03;1.07;;;;;;;6.07;100.00;103113.19;5039931;28;20434;-71
2022/01/22 09:16:16;;;;;;;1.40;0.70;;;;;;;6.45;100.00;103201.94;5042668;28;20222;-71
2022/01/22 09:18:41;;;;;;;7.70;1.20;;;;;;;6.67;100.00;103215.38;5041879;28;20180;-71
2022/01/22 09:21:10;;;;;;;5.23;1.57;;;;;;;6.43;100.00;103172.72;5040933;28;20236;-72
2022/01/22 09:23:35;;;;;;;5.70;1.10;;;;;;;6.51;100.00;103207.69;5042255;28;20176;-71
2022/01/22 09:26:01;;;;;;;4.40;1.87;;;;;;;6.84;100.00;103229.25;5041684;28;20786;-71
2022/01/22 09:28:27;;;;;;;3.23;1.00;;;;;;;6.81;100.00;103232.16;5039558;28;20204;-72
2022/01/22 09:30:53;;;;;;;3.40;0.73;;;;;;;7.05;100.00;103222.28;5041054;28;20179;-71
2022/01/22 09:33:20;;;;;;;4.67;1.10;;;;;;;6.90;100.00;103237.66;5021312;22;20503;-75
2022/01/22 09:35:45;;;;;;;2.63;0.80;;;;;;;6.72;100.00;103212.38;5001434;28;20917;-74
2022/01/22 09:38:11;;;;;;;2.40;0.93;;;;;;;6.89;100.00;103235.09;5001396;28;20427;-75
2022/01/22 09:40:36;;;;;;;3.00;0.83;;;;;;;6.45;100.00;103177.94;5000544;28;20209;-75
2022/01/22 09:43:02;;;;;;;5.03;2.13;;;;;;;6.99;100.00;103254.78;5001459;28;20292;-75
2022/01/22 09:45:30;;;;;;;4.00;1.10;;;;;;;6.93;100.00;103236.56;5002334;28;20650;-75
2022/01/22 09:47:58;;;;;;;3.80;0.90;;;;;;;6.99;100.00;103244.94;4999108;28;20642;-75
2022/01/22 09:50:26;;;;;;;10.40;1.70;;;;;;;6.72;100.00;103228.38;5000123;28;20490;-74
2022/01/22 09:52:52;;;;;;;6.33;1.97;;;;;;;6.94;100.00;103263.16;4998297;28;20448;-75
2022/01/22 09:55:17;;;;;;;4.70;1.60;;;;;;;6.92;100.00;103243.72;5001829;28;20443;-75
2022/01/22 09:57:44;;;;;;;7.00;1.13;;;;;;;6.89;100.00;103262.63;4984191;28;20190;-74
2022/01/22 10:00:12;;;;;;;6.13;1.40;;;;;;;6.66;100.00;103229.69;4999701;28;20181;-74
2022/01/22 10:02:46;;;;;;;4.70;1.20;;;;;;;6.80;100.00;103263.34;4999414;28;20447;-75
2022/01/22 10:05:36;;;;;;;5.53;1.20;;;;;;;6.85;100.00;103277.16;4999705;28;20427;-74
2022/01/22 10:08:20;;;;;;;5.57;1.40;;;;;;;6.76;100.00;103269.84;5000465;28;20417;-74
2022/01/22 10:10:47;;;;;;;3.40;0.93;;;;;;;6.78;100.00;103267.91;4985815;28;20470;-74
2022/01/22 10:13:13;;;;;;;3.40;0.80;;;;;;;6.97;100.00;103262.91;4999212;28;20535;-75
2022/01/22 10:15:39;;;;;;;5.77;1.00;;;;;;;6.60;100.00;103199.97;5000466;28;20696;-74
2022/01/22 10:18:06;;;;;;;3.27;0.80;;;;;;;6.95;100.00;103266.66;4998832;28;20213;-74
2022/01/22 10:20:35;;;;;;;4.40;1.10;;;;;;;7.17;100.00;103271.19;4999911;28;20493;-74
2022/01/22 10:23:06;;;;;;;4.03;0.90;;;;;;;6.91;100.00;103265.16;4999053;28;20958;-74
2022/01/22 10:25:43;;;;;;;5.07;1.23;;;;;;;6.54;100.00;103194.13;5000116;28;20487;-74
2022/01/22 10:28:16;;;;;;;3.10;1.00;;;;;;;6.96;100.00;103265.69;4999326;28;20427;-74
2022/01/22 10:30:44;;;;;;;2.33;0.90;;;;;;;6.46;100.00;103215.16;5000020;28;20463;-74
2022/01/22 10:33:32;;;;;;;4.50;1.33;;;;;;;6.75;100.00;103225.47;4999974;28;20463;-74
2022/01/22 10:36:16;;;;;;;3.40;0.90;;;;;;;6.99;100.00;103273.47;4999858;28;20423;-74
2022/01/22 10:38:45;;;;;;;7.37;1.00;;;;;;;7.04;100.00;103278.47;4999970;28;20417;-74
2022/01/22 10:41:12;;;;;;;4.97;1.10;;;;;;;6.92;100.00;103281.09;4999149;28;20467;-73
2022/01/22 10:43:43;;;;;;;4.60;1.53;;;;;;;6.74;100.00;103277.97;5000260;28;20534;-72
2022/01/22 10:46:20;;;;;;;10.10;1.60;;;;;;;6.88;100.00;103270.75;4998960;28;20420;-74
2022/01/22 10:49:00;;;;;;;3.60;1.47;;;;;;;6.43;100.00;103242.03;4999642;28;20412;-74
2022/01/22 10:51:28;;;;;;;3.10;1.10;;;;;;;6.62;100.00;103267.34;5000433;28;21121;-75
2022/01/22 10:53:59;;;;;;;3.60;1.17;;;;;;;6.54;100.00;103231.44;4999521;28;20470;-75
2022/01/22 10:56:26;;;;;;;4.93;1.07;;;;;;;6.88;100.00;103279.59;5000025;28;20405;-75
2022/01/22 10:59:01;;;;;;;4.20;1.00;;;;;;;6.70;100.00;103271.16;4998654;28;20831;-75
2022/01/22 11:01:30;;;;;;;1.93;0.80;;;;;;;6.75;100.00;103281.50;4998685;28;20463;-75
2022/01/22 11:04:04;;;;;;;2.83;1.00;;;;;;;6.95;100.00;103278.19;4996293;28;20735;-74
2022/01/22 11:06:31;;;;;;;4.33;1.07;;;;;;;6.45;100.00;103191.25;4999374;28;20431;-74
2022/01/22 11:08:56;;;;;;;7.37;1.10;;;;;;;6.98;100.00;103274.44;5001939;28;20434;-74
2022/01/22 11:11:24;;;;;;;4.57;0.97;;;;;;;6.97;100.00;103256.69;5004383;28;20819;-75
2022/01/22 11:13:49;;;;;;;3.60;1.10;;;;;;;6.69;100.00;103252.59;5004302;28;20681;-75
2022/01/22 11:16:17;;;;;;;3.70;0.90;;;;;;;6.92;100.00;103267.75;5003484;28;20487;-74
2022/01/22 11:18:46;;;;;;;4.43;0.80;;;;;;;6.98;100.00;103274.44;5002912;28;20192;-75
2022/01/22 11:21:12;;;;;;;3.10;1.10;;;;;;;6.54;100.00;103218.13;4986835;28;20530;-74
2022/01/22 11:23:38;;;;;;;6.93;1.10;;;;;;;7.04;100.00;103271.31;5002824;28;20967;-75
2022/01/22 11:26:04;;;;;;;4.43;0.80;;;;;;;6.74;100.00;103248.63;5003798;28;20424;-75
2022/01/22 11:28:29;;;;;;;3.97;0.80;;;;;;;6.72;100.00;103261.22;5003386;28;20432;-74
2022/01/22 11:31:00;;;;;;;3.20;0.90;;;;;;;6.59;100.00;103201.75;5002124;28;20440;-75
2022/01/22 11:33:27;;;;;;;3.00;1.17;;;;;;;6.97;100.00;103281.59;5003381;28;20228;-73
2022/01/22 11:35:52;;;;;;;3.07;0.83;;;;;;;7.07;100.00;103283.56;5000963;28;20428;-74
2022/01/22 11:38:38;;;;;;;2.87;1.10;;;;;;;6.64;100.00;103241.41;5002062;28;20916;-75
2022/01/22 11:41:05;;;;;;;7.10;1.00;;;;;;;7.07;100.00;103286.22;5002327;28;20205;-75
2022/01/22 11:44:10;;;;;;;4.17;1.20;;;;;;;6.84;100.00;103271.94;5001420;28;20453;-75
2022/01/22 11:46:58;;;;;;;5.60;1.03;;;;;;;6.99;100.00;103292.97;5000828;28;20984;-75
2022/01/22 11:49:30;;;;;;;2.40;0.80;;;;;;;7.04;100.00;103289.13;4984893;28;20431;-74
2022/01/22 11:52:08;;;;;;;1.80;0.77;;;;;;;7.10;100.00;103289.50;5001297;28;20522;-75
2022/01/22 11:55:13;;;;;;;2.70;0.90;;;;;;;6.86;100.00;103270.03;5003917;28;20900;-74
2022/01/22 11:57:41;;;;;;;3.10;0.70;;;;;;;7.10;100.00;103283.34;4939527;29;20996;-74
2022/01/22 12:00:20;;;;;;;2.53;1.10;;;;;;;7.14;100.00;103285.63;4938514;29;20845;-74
2022/01/22 12:03:08;;;;;;;1.70;0.70;;;;;;;7.05;100.00;103290.81;4973068;28;20464;-74
2022/01/22 12:05:49;;;;;;;1.87;0.60;;;;;;;6.53;100.00;103200.38;5001524;28;20427;-74
2022/01/22 12:08:15;;;;;;;6.07;0.93;;;;;;;6.82;100.00;103239.19;5000564;28;20436;-74
2022/01/22 12:10:43;;;;;;;1.30;0.70;;;;;;;7.15;100.00;103241.13;4997358;28;20499;-74
2022/01/22 12:16:13;;;;;;;3.17;1.00;;;;;;;7.67;100.00;103294.03;4997737;28;20432;-74
2022/01/22 12:18:46;;;;;;;5.90;1.10;;;;;;;7.62;100.00;103296.19;4999467;28;20440;-75
2022/01/22 12:21:40;;;;;;;2.50;1.00;;;;;;;7.55;100.00;103288.75;4994494;28;20503;-73
2022/01/22 12:24:10;;;;;;;4.20;1.37;;;;;;;7.87;100.00;103296.97;4999620;28;20482;-76
2022/01/22 12:26:39;;;;;;;3.17;0.93;;;;;;;8.09;100.00;103290.75;4997716;28;20445;-75
2022/01/22 12:29:27;;;;;;;4.00;1.07;;;;;;;7.75;100.00;103290.72;4995645;28;21376;-75
2022/01/22 12:32:04;;;;;;;5.00;1.10;;;;;;;7.93;100.00;103289.31;4999415;28;20455;-78
2022/01/22 12:35:11;;;;;;;4.50;0.87;;;;;;;7.64;100.00;103283.59;4982359;28;20551;-79
2022/01/22 12:37:40;;;;;;;2.90;0.80;;;;;;;7.39;100.00;103286.44;4925467;29;21029;-78
2022/01/22 12:40:07;;;;;;;4.57;1.20;;;;;;;7.27;100.00;103301.59;4926323;29;20451;-77
2022/01/22 12:43:31;;;;;;;1.43;0.70;;;;;;;7.02;100.00;103228.69;4960595;28;21019;-77
2022/01/22 12:45:55;;;;;;;2.07;0.80;;;;;;;7.37;100.00;103285.69;4997077;28;20523;-80
2022/01/22 12:48:21;;;;;;;2.63;1.00;;;;;;;7.25;100.00;103295.50;4997125;28;20456;-79
2022/01/22 12:50:46;;;;;;;5.90;1.20;;;;;;;7.25;100.00;103268.81;4999210;28;20427;-78
2022/01/22 12:53:14;;;;;;;5.90;0.70;;;;;;;7.34;100.00;103277.94;4980314;28;20449;-79
2022/01/22 12:58:40;;;;;;;1.20;0.53;;;;;;;7.72;100.00;103288.31;4999418;28;20435;-79
2022/01/22 13:01:22;;;;;;;3.47;0.93;;;;;;;7.63;100.00;103284.53;4978462;28;21034;-79
2022/01/22 13:03:50;;;;;;;2.77;0.70;;;;;;;7.28;100.00;103233.03;4982642;28;21289;-79
2022/01/22 13:06:18;;;;;;;2.30;0.60;;;;;;;7.28;100.00;103233.88;4983708;28;20448;-79
2022/01/22 13:08:44;;;;;;;2.10;0.60;;;;;;;7.55;100.00;103288.75;4986650;28;20439;-79